Terminal Aerodrome Forecast
Issued by NWS Nashville, TN

Home | Current Version | Previous Version | Text Only | Print | Product List | Glossary On
Versions: 1 2 3 4 5 6 7 8 9 10 11 12 13 14
000
FTUS44 KOHX 251700
TAFCSV
TAF
KCSV 251738Z 2518/2618 28010KT P6SM BKN035
     FM260000 32003KT P6SM SCT100
     FM260800 VRB02KT 4SM BR SCT007
     FM261000 00000KT 2SM BR SCT007
     FM261400 29005KT P6SM SCT025=

USA.gov is the U.S. government's official web portal to all federal, state and local government web resources and services.